Time;durP1;ratioP1;P1;durP2;ratioP2;P2;SDS_P1;SDS_P2;PMS_P1;PMS_P2;Temp;Humidity;BMP_temperature;BMP_pressure;BME280_temperature;BME280_humidity;BME280_pressure;Samples;Min_cycle;Max_cycle;Signal;HPM_P1;HPM_P2
2022/11/06 00:02:05;;;;;;;2.30;2.10;;;8.60;57.10;;;7.30;59.99;101535.50;12170586;19;20018;-89
2022/11/06 00:10:34;;;;;;;2.70;2.45;;;8.60;57.20;;;6.83;60.10;101459.75;12170124;19;20034;-89
2022/11/06 00:14:36;;;;;;;2.28;1.95;;;8.80;57.40;;;7.20;60.26;101526.25;12170337;19;20039;-89
2022/11/06 00:18:40;;;;;;;3.20;2.55;;;8.70;57.40;;;7.25;60.18;101534.78;12169044;19;20376;-90
2022/11/06 00:22:41;;;;;;;2.42;2.22;;;8.50;57.40;;;7.16;60.27;101527.25;12164325;19;20019;-89
2022/11/06 00:26:43;;;;;;;2.80;2.55;;;8.50;57.40;;;7.27;60.08;101549.44;12168345;19;20261;-90
2022/11/06 00:30:46;;;;;;;3.35;2.83;;;8.50;57.40;;;7.14;60.23;101529.03;12172717;19;20018;-89
2022/11/06 00:34:48;;;;;;;2.85;2.55;;;8.50;57.40;;;7.20;60.08;101544.44;12168748;19;20757;-89
2022/11/06 00:38:54;;;;;;;3.67;2.45;;;8.40;57.20;;;7.17;60.03;101560.97;12167951;19;20015;-89
2022/11/06 00:42:56;;;;;;;3.33;2.45;;;8.40;57.10;;;7.12;60.03;101542.06;12174647;19;20789;-90
2022/11/06 00:46:58;;;;;;;5.60;2.70;;;8.40;57.20;;;7.12;60.18;101539.44;12173842;19;20018;-89
2022/11/06 00:51:13;;;;;;;3.28;2.50;;;8.30;57.10;;;7.05;60.09;101546.56;12173773;19;20022;-89
2022/11/06 00:55:14;;;;;;;2.63;2.40;;;8.30;57.10;;;6.93;60.09;101526.13;12170580;19;20015;-89
2022/11/06 00:59:16;;;;;;;2.80;2.60;;;8.50;57.60;;;6.96;60.38;101546.81;12165926;19;20022;-89
2022/11/06 01:03:18;;;;;;;6.57;2.15;;;8.50;57.40;;;6.96;60.03;101546.81;12174003;19;20033;-89
2022/11/06 01:07:20;;;;;;;3.35;2.30;;;8.20;57.20;;;6.67;60.30;101503.47;12169233;19;20037;-88
2022/11/06 01:11:35;;;;;;;5.72;2.72;;;8.10;57.10;;;6.92;60.19;101553.00;12175845;19;20121;-89
2022/11/06 01:15:37;;;;;;;2.53;2.33;;;8.10;57.10;;;6.70;60.08;101528.47;12172088;19;20486;-89
2022/11/06 01:19:39;;;;;;;2.90;2.63;;;8.00;57.10;;;6.51;60.12;101505.63;12171145;19;20010;-89
2022/11/06 01:23:41;;;;;;;3.45;2.72;;;8.00;57.20;;;6.77;60.28;101537.81;12191520;19;20011;-89
2022/11/06 01:27:43;;;;;;;2.47;2.20;;;7.90;57.20;;;6.82;60.26;101554.97;12187853;19;20025;-89
2022/11/06 01:31:48;;;;;;;4.05;2.50;;;8.10;57.30;;;6.53;60.27;101495.19;12193204;19;20006;-89
2022/11/06 01:35:50;;;;;;;;;;;7.90;57.30;;;6.54;60.14;101500.34;12189113;19;20042;-89
2022/11/06 01:39:52;;;;;;;2.60;2.00;;;7.90;57.40;;;6.75;60.28;101530.09;12193133;19;20292;-89
2022/11/06 01:44:06;;;;;;;2.50;1.80;;;7.90;57.20;;;6.68;59.98;101528.53;12196276;19;20014;-89
2022/11/06 01:48:08;;;;;;;2.58;2.38;;;8.00;57.20;;;6.64;59.98;101526.88;12188667;19;20395;-88
2022/11/06 01:52:13;;;;;;;2.88;2.55;;;7.80;57.10;;;6.54;60.06;101515.06;12191220;19;20019;-89
2022/11/06 01:56:16;;;;;;;3.20;2.58;;;7.80;57.20;;;6.34;60.16;101479.22;12185168;19;20046;-89
2022/11/06 02:00:19;;;;;;;2.88;2.22;;;7.80;57.20;;;6.39;60.36;101490.34;12183602;19;20018;-88
2022/11/06 02:04:25;;;;;;;3.20;2.40;;;7.70;57.20;;;6.28;60.05;101474.22;12188918;19;20018;-89
2022/11/06 02:08:28;;;;;;;2.88;2.60;;;7.70;57.30;;;6.48;60.33;101502.22;12188054;19;20029;-89
2022/11/06 02:13:02;;;;;;;3.13;2.35;;;7.60;57.30;;;6.24;60.26;101464.78;12178284;19;20904;-89
2022/11/06 02:17:46;;;;;;;3.42;2.15;;;7.60;57.40;;;6.34;60.20;101500.00;12173087;19;20022;-89
2022/11/06 02:22:23;;;;;;;2.75;2.05;;;7.60;57.50;;;6.26;60.39;101478.56;12172813;19;20043;-88
2022/11/06 02:26:44;;;;;;;5.15;2.55;;;7.60;57.60;;;6.39;60.40;101498.13;12174423;19;20014;-88
2022/11/06 02:30:48;;;;;;;3.53;2.38;;;7.60;57.60;;;6.34;60.48;101485.28;12174194;19;20038;-89
2022/11/06 02:34:53;;;;;;;2.53;2.33;;;7.60;57.60;;;6.09;60.42;101435.78;12171265;19;20376;-88
2022/11/06 02:39:00;;;;;;;3.70;2.65;;;7.60;57.60;;;6.23;60.24;101463.09;12171301;19;20288;-89
2022/11/06 02:43:06;;;;;;;2.15;1.95;;;7.60;57.50;;;6.26;60.50;101470.81;12172905;19;20014;-89
2022/11/06 02:47:11;;;;;;;2.83;2.50;;;7.50;57.50;;;6.02;60.43;101433.38;12167241;19;20027;-88
2022/11/06 02:51:20;;;;;;;2.83;2.60;;;7.60;57.60;;;6.19;60.48;101460.59;12170906;19;20018;-89
2022/11/06 02:55:40;;;;;;;2.58;2.38;;;7.50;57.70;;;6.22;60.42;101464.84;12167477;19;20741;-88
2022/11/06 03:00:03;;;;;;;2.92;2.33;;;7.50;57.70;;;6.25;60.47;101458.72;12170344;19;20043;-88
2022/11/06 03:04:18;;;;;;;2.55;2.35;;;7.70;57.80;;;6.21;60.54;101460.53;12168977;19;20394;-88
2022/11/06 03:08:38;;;;;;;2.58;2.38;;;7.50;57.70;;;6.28;60.43;101458.66;12167308;19;20489;-89
2022/11/06 03:13:29;;;;;;;4.40;2.33;;;7.60;57.70;;;6.23;60.41;101444.94;12165896;19;20029;-89
2022/11/06 03:17:49;;;;;;;1.88;1.77;;;7.60;57.80;;;6.37;60.36;101473.97;12161490;19;20019;-88
2022/11/06 03:22:01;;;;;;;3.40;2.30;;;7.60;57.80;;;6.37;60.59;101471.38;12166109;19;20419;-88
2022/11/06 03:26:28;;;;;;;3.08;1.98;;;7.60;57.80;;;6.28;60.64;101454.31;12168596;19;20041;-88
2022/11/06 03:30:35;;;;;;;3.15;2.40;;;7.60;57.90;;;6.24;60.69;101447.50;12168133;19;20018;-88
2022/11/06 03:35:19;;;;;;;3.50;2.53;;;7.60;57.90;;;6.18;60.65;101443.34;12168520;19;20017;-88
2022/11/06 03:39:38;;;;;;;3.83;2.53;;;7.60;58.00;;;6.27;60.74;101462.16;12164610;19;20407;-88
2022/11/06 03:43:46;;;;;;;2.30;2.10;;;7.60;57.90;;;6.19;60.55;101449.38;12161447;19;20046;-88
2022/11/06 03:47:57;;;;;;;2.40;2.20;;;7.70;58.00;;;6.32;60.57;101455.94;12165945;19;20053;-88
2022/11/06 03:52:21;;;;;;;2.10;1.98;;;7.70;58.00;;;6.43;60.75;101468.66;12166918;19;20025;-88
2022/11/06 03:56:38;;;;;;;2.95;2.05;;;7.70;58.20;;;6.47;60.75;101477.19;12163748;19;20019;-89
2022/11/06 04:00:41;;;;;;;2.10;1.88;;;7.80;58.20;;;6.40;60.78;101458.34;12163037;19;20045;-88
2022/11/06 04:04:52;;;;;;;2.45;2.25;;;7.90;58.20;;;6.43;60.75;101456.53;12165834;19;20869;-88
2022/11/06 04:17:43;;;;;;;2.53;2.08;;;7.80;57.90;;;6.27;60.90;101410.28;12162144;19;20015;-89
2022/11/06 04:22:26;;;;;;;2.90;2.60;;;7.80;57.90;;;6.31;60.71;101424.84;12166462;19;20447;-89
2022/11/06 04:26:38;;;;;;;2.42;2.17;;;7.80;58.00;;;6.18;60.63;101400.97;12163061;19;20133;-88
2022/11/06 04:30:53;;;;;;;4.90;2.15;;;7.70;57.90;;;6.46;60.80;101441.78;12162982;19;20029;-89
2022/11/06 04:35:16;;;;;;;3.28;2.58;;;7.80;57.90;;;6.13;60.71;101398.53;12162133;19;20019;-88
2022/11/06 04:39:39;;;;;;;4.82;2.75;;;7.70;57.70;;;6.30;60.54;101438.72;12159990;19;20884;-89
2022/11/06 04:43:57;;;;;;;2.10;1.83;;;7.70;57.70;;;5.97;60.62;101397.22;12160651;19;20066;-89
2022/11/06 04:48:01;;;;;;;2.17;1.98;;;7.60;57.70;;;6.28;60.78;101437.91;12157398;19;20614;-88
2022/11/06 04:52:08;;;;;;;3.20;2.63;;;7.60;57.70;;;6.19;60.79;101424.28;12161082;19;20014;-89
2022/11/06 04:56:12;;;;;;;2.97;2.63;;;7.60;57.90;;;5.96;60.74;101380.78;12164345;19;21220;-88
2022/11/06 05:00:15;;;;;;;2.75;2.30;;;7.60;57.90;;;6.18;60.72;101420.00;12168647;19;20043;-88
2022/11/06 05:04:17;;;;;;;3.25;2.75;;;7.60;57.90;;;6.33;60.88;101428.25;12164980;19;20540;-88
2022/11/06 05:08:20;;;;;;;3.22;2.78;;;7.60;58.00;;;6.26;61.01;101424.13;12166813;19;20015;-89
2022/11/06 05:12:21;;;;;;;3.88;3.15;;;7.60;58.10;;;6.11;60.70;101389.91;12182989;19;20368;-89
2022/11/06 05:16:23;;;;;;;3.55;3.10;;;7.60;58.10;;;6.29;60.93;101408.47;12176480;19;20305;-89
2022/11/06 05:20:25;;;;;;;7.55;2.88;;;7.60;58.10;;;6.19;60.95;101402.69;12182679;19;20118;-89
2022/11/06 05:24:27;;;;;;;2.90;2.53;;;7.80;58.30;;;6.23;60.74;101404.28;12181931;19;20018;-90
2022/11/06 05:28:29;;;;;;;3.50;3.03;;;7.90;58.30;;;6.34;60.81;101409.19;12172142;19;20566;-89
2022/11/06 05:32:31;;;;;;;3.72;3.10;;;7.70;58.30;;;6.26;60.81;101400.78;12179091;19;20017;-89
2022/11/06 05:36:32;;;;;;;4.57;3.08;;;7.70;58.30;;;6.34;60.86;101409.19;12169639;19;20606;-89
2022/11/06 05:40:34;;;;;;;3.35;3.03;;;7.60;58.50;;;6.06;60.83;101360.66;12175428;19;20026;-89
2022/11/06 05:44:36;;;;;;;4.18;3.15;;;7.60;58.20;;;6.35;60.96;101405.75;12179286;19;20015;-89
2022/11/06 05:48:38;;;;;;;3.38;3.08;;;7.70;58.30;;;6.41;61.07;101415.94;12174084;19;20014;-88
2022/11/06 05:52:39;;;;;;;4.03;2.78;;;7.70;58.50;;;6.29;60.99;101387.72;12176796;19;20011;-88
2022/11/06 05:56:41;;;;;;;3.70;3.30;;;7.70;58.50;;;6.42;60.95;101421.06;12170441;19;20026;-89
2022/11/06 06:00:42;;;;;;;5.53;3.00;;;7.70;58.50;;;6.32;61.21;101403.19;12178633;19;20030;-89
2022/11/06 06:04:44;;;;;;;3.72;3.22;;;7.70;58.50;;;6.40;60.91;101422.03;12176699;19;20019;-89
2022/11/06 06:08:46;;;;;;;4.00;2.67;;;7.70;58.50;;;6.46;61.04;101424.47;12165937;19;20050;-89
2022/11/06 06:12:51;;;;;;;4.32;2.72;;;7.70;58.40;;;6.10;61.01;101367.50;12170304;19;20987;-89
2022/11/06 06:16:53;;;;;;;6.50;3.17;;;7.70;58.40;;;6.28;61.28;101391.22;12171738;19;20018;-88
2022/11/06 06:20:57;;;;;;;4.78;3.75;;;7.80;58.60;;;6.51;61.06;101425.19;12174138;19;20837;-89
2022/11/06 06:24:59;;;;;;;6.50;3.77;;;7.80;58.70;;;6.27;61.19;101384.34;12170991;19;20397;-88
2022/11/06 06:29:01;;;;;;;5.45;3.45;;;7.80;58.80;;;6.56;61.01;101431.09;12164734;19;20407;-88
2022/11/06 06:33:05;;;;;;;7.80;3.30;;;7.80;58.80;;;6.34;61.13;101402.25;12168810;19;20488;-88
2022/11/06 06:37:07;;;;;;;4.75;3.47;;;7.80;58.70;;;6.40;61.28;101414.25;12166703;19;20117;-89
2022/11/06 06:41:09;;;;;;;8.20;4.70;;;7.90;58.80;;;6.59;61.29;101444.00;12170502;19;20015;-89
2022/11/06 06:45:10;;;;;;;8.75;5.00;;;7.90;58.90;;;6.58;61.32;101431.03;12165072;19;20279;-89
2022/11/06 06:49:12;;;;;;;8.35;4.75;;;7.90;59.00;;;6.64;61.15;101449.91;12155037;19;20018;-91
2022/11/06 06:53:14;;;;;;;6.13;4.05;;;7.90;59.00;;;6.46;61.20;101421.00;12159085;19;20026;-88
2022/11/06 06:57:16;;;;;;;5.32;3.95;;;7.90;58.90;;;6.23;61.43;101377.53;12155527;19;20018;-89
2022/11/06 07:01:17;;;;;;;6.40;3.63;;;8.30;59.30;;;6.57;61.27;101430.19;12166635;19;20287;-88
2022/11/06 07:05:19;;;;;;;3.72;3.38;;;8.00;59.10;;;6.65;61.30;101451.59;12169042;19;20061;-90
2022/11/06 07:09:25;;;;;;;3.55;3.17;;;8.00;59.20;;;6.72;61.47;101449.69;12161377;19;21343;-91
2022/11/06 07:13:27;;;;;;;7.40;3.72;;;8.00;59.30;;;6.70;61.36;101441.09;12161724;19;20035;-93
2022/11/06 07:17:29;;;;;;;7.18;4.32;;;8.10;59.30;;;6.78;61.38;101440.91;12157483;19;20011;-91
2022/11/06 07:21:31;;;;;;;5.13;3.55;;;8.20;59.60;;;6.88;61.33;101452.69;12166237;19;20006;-90
2022/11/06 07:25:33;;;;;;;3.88;3.40;;;8.40;59.80;;;6.63;61.51;101403.22;12161759;19;20027;-91
2022/11/06 07:29:35;;;;;;;5.03;3.97;;;8.20;59.60;;;6.62;61.61;101386.81;12162335;19;20014;-91
2022/11/06 07:33:37;;;;;;;4.65;3.80;;;8.30;59.80;;;6.90;61.42;101431.91;12167416;19;20025;-90
2022/11/06 07:37:39;;;;;;;4.35;3.95;;;8.30;59.90;;;7.01;61.74;101433.28;12170176;19;20391;-90
2022/11/06 07:41:40;;;;;;;5.40;4.10;;;8.40;60.50;;;6.98;61.57;101414.34;12164779;19;20010;-90
2022/11/06 07:45:42;;;;;;;6.03;3.63;;;8.50;60.50;;;7.13;61.73;101431.22;12170209;19;20018;-88
2022/11/06 07:49:43;;;;;;;4.88;3.95;;;8.60;60.60;;;7.28;61.75;101443.75;12159011;19;20014;-87
2022/11/06 07:53:45;;;;;;;4.75;3.80;;;8.60;60.40;;;7.38;61.84;101441.75;12159129;19;20566;-88
2022/11/06 07:57:47;;;;;;;6.20;4.18;;;9.00;60.60;;;7.43;61.86;101443.31;12168148;19;20113;-88
2022/11/06 08:01:49;;;;;;;5.15;4.03;;;8.70;60.60;;;7.50;61.76;101438.75;12165198;19;20015;-86
2022/11/06 08:05:50;;;;;;;4.72;3.85;;;8.80;60.50;;;7.46;61.97;101426.78;12165496;19;20018;-89
2022/11/06 08:09:52;;;;;;;7.75;5.18;;;8.90;60.60;;;7.29;61.90;101376.19;12171153;19;20360;-88
2022/11/06 08:13:54;;;;;;;6.82;4.63;;;8.90;61.00;;;7.32;62.05;101352.69;12171633;19;20019;-92
2022/11/06 08:17:58;;;;;;;5.63;4.68;;;9.20;61.50;;;7.71;61.86;101406.88;12152278;19;20031;-89
2022/11/06 08:22:00;;;;;;;5.93;4.25;;;9.10;61.40;;;7.51;61.95;101358.16;12167578;19;20171;-91
2022/11/06 08:26:04;;;;;;;5.80;4.22;;;9.20;61.70;;;7.80;62.13;101395.34;12159701;19;20299;-87
2022/11/06 08:30:09;;;;;;;6.50;4.60;;;9.30;61.40;;;8.06;62.01;101420.50;12161858;19;20032;-89
2022/11/06 08:34:14;;;;;;;5.40;4.88;;;9.40;61.50;;;7.68;62.04;101348.97;12164076;19;20038;-89
2022/11/06 08:38:16;;;;;;;5.00;3.97;;;9.60;62.10;;;7.96;62.21;101373.13;12159169;19;20488;-90
2022/11/06 08:42:18;;;;;;;5.90;4.47;;;9.60;61.60;;;8.18;62.14;101390.59;12165628;19;20014;-90
2022/11/06 08:46:19;;;;;;;4.63;4.05;;;9.70;61.80;;;8.07;62.16;101364.09;12163585;19;20026;-89
2022/11/06 08:50:21;;;;;;;5.85;4.35;;;9.90;61.60;;;8.41;62.13;101398.50;12158860;19;20019;-91
2022/11/06 08:54:22;;;;;;;5.65;4.88;;;9.90;61.80;;;8.70;62.37;101443.47;12159915;19;20443;-91
2022/11/06 08:58:24;;;;;;;4.90;4.32;;;9.90;62.30;;;8.72;62.20;101399.13;12160267;19;20019;-90
2022/11/06 09:02:25;;;;;;;7.70;3.85;;;10.10;62.00;;;8.94;62.31;101420.03;12156989;19;20031;-90
2022/11/06 09:06:27;;;;;;;5.10;4.20;;;10.30;61.80;;;9.09;62.42;101411.63;12157455;19;20018;-90
2022/11/06 09:10:28;;;;;;;5.18;3.78;;;10.40;61.90;;;9.18;62.39;101398.28;12157795;19;20469;-89
2022/11/06 09:14:33;;;;;;;4.93;3.53;;;10.50;61.60;;;9.16;62.39;101367.97;12159159;19;20024;-90
2022/11/06 09:18:35;;;;;;;4.63;3.83;;;10.80;61.90;;;9.03;62.63;101329.34;12163368;19;20263;-88
2022/11/06 09:22:36;;;;;;;6.28;4.50;;;10.80;61.60;;;9.58;62.37;101377.59;12161324;19;20716;-91
2022/11/06 09:26:38;;;;;;;6.13;4.45;;;11.00;61.40;;;9.68;62.43;101371.09;12160955;19;20502;-90
2022/11/06 09:30:40;;;;;;;5.55;4.72;;;11.10;61.30;;;9.60;62.55;101321.03;12159188;19;20043;-91
2022/11/06 09:34:41;;;;;;;5.47;4.68;;;11.50;61.50;;;10.16;62.48;101386.44;12159699;19;20014;-91
2022/11/06 09:38:43;;;;;;;4.53;3.97;;;11.60;60.90;;;10.36;62.35;101393.44;12164595;19;21641;-89
2022/11/06 09:43:10;;;;;;;6.50;3.03;;;11.70;60.60;;;10.49;62.52;101401.59;12170973;19;20575;-90
2022/11/06 09:47:19;;;;;;;4.68;3.95;;;11.80;60.20;;;10.58;62.56;101372.44;12172551;19;20010;-90
2022/11/06 09:51:37;;;;;;;4.95;3.70;;;12.20;60.20;;;10.71;62.49;101372.75;12157799;19;20026;-90
2022/11/06 09:55:41;;;;;;;5.40;3.92;;;12.20;59.70;;;10.82;62.44;101362.66;12162566;19;20022;-91
2022/11/06 09:59:53;;;;;;;3.65;3.35;;;12.30;59.60;;;10.78;62.60;101329.78;12177478;19;20587;-89
2022/11/06 10:04:00;;;;;;;6.88;3.60;;;12.50;59.80;;;11.08;62.56;101351.00;12180232;19;20097;-88
2022/11/06 10:08:21;;;;;;;3.47;3.17;;;12.90;59.60;;;11.40;62.49;101374.78;12182221;19;20277;-89
2022/11/06 10:13:06;;;;;;;3.47;3.17;;;12.90;59.10;;;11.52;62.28;101376.78;12173141;19;20021;-89
2022/11/06 10:17:38;;;;;;;3.22;2.80;;;12.90;58.70;;;11.63;62.22;101373.63;12167903;19;20021;-89
2022/11/06 10:21:59;;;;;;;4.07;2.97;;;13.00;58.70;;;11.60;62.27;101352.03;12165947;19;20497;-90
2022/11/06 10:26:17;;;;;;;3.35;2.90;;;13.30;58.60;;;11.70;62.11;101334.94;12167522;19;20507;-90
2022/11/06 10:30:19;;;;;;;5.57;3.30;;;13.20;58.40;;;11.90;62.21;101352.28;12163875;19;20022;-91
2022/11/06 10:34:46;;;;;;;4.13;3.28;;;13.30;58.20;;;11.62;62.04;101303.09;12164187;19;20019;-91
2022/11/06 10:38:49;;;;;;;3.60;3.20;;;13.50;57.70;;;12.00;61.96;101337.81;12165558;19;20024;-89
2022/11/06 10:43:45;;;;;;;3.47;2.83;;;13.50;58.10;;;12.08;61.91;101342.66;12177320;19;20394;-90
2022/11/06 10:48:18;;;;;;;5.27;2.47;;;13.50;57.80;;;12.04;61.73;101318.38;12184008;19;20873;-89
2022/11/06 10:52:53;;;;;;;2.67;2.40;;;13.60;57.60;;;12.28;61.65;101336.38;12185671;19;20039;-90
2022/11/06 10:57:47;;;;;;;2.72;2.47;;;13.70;58.10;;;12.13;61.78;101291.75;12179474;19;20113;-90
2022/11/06 11:01:49;;;;;;;3.10;2.25;;;13.70;57.80;;;12.04;61.61;101260.78;12175426;19;20487;-90
2022/11/06 11:05:51;;;;;;;3.30;2.58;;;13.80;57.80;;;12.47;61.62;101312.66;12164888;19;20843;-89
2022/11/06 11:09:56;;;;;;;4.05;2.83;;;13.80;57.50;;;12.12;61.56;101234.22;12165089;19;20023;-91
2022/11/06 11:14:00;;;;;;;7.47;4.73;;;13.90;57.60;;;12.56;61.38;101305.16;12170565;19;20449;-91
2022/11/06 11:18:15;;;;;;;3.65;3.22;;;13.80;57.50;;;12.60;61.49;101295.34;12171457;19;20018;-90
2022/11/06 11:22:20;;;;;;;5.20;2.97;;;13.90;57.60;;;12.16;61.43;101212.19;12174995;19;20017;-90
2022/11/06 11:26:27;;;;;;;6.07;2.67;;;14.10;57.60;;;12.28;61.21;101231.63;12172222;19;20363;-92
2022/11/06 11:30:29;;;;;;;10.93;5.53;;;14.10;57.20;;;12.34;61.37;101221.69;12166111;19;20125;-90
2022/11/06 11:34:36;;;;;;;7.40;4.68;;;14.20;56.90;;;12.62;61.12;101247.19;12164097;19;20018;-90
2022/11/06 11:38:40;;;;;;;6.63;4.50;;;14.30;57.00;;;12.61;60.95;101239.44;12169032;19;20030;-89
2022/11/06 11:42:42;;;;;;;3.30;2.80;;;14.10;56.40;;;12.69;61.05;101242.47;12167838;19;20014;-90
2022/11/06 11:46:54;;;;;;;2.72;2.40;;;14.20;56.70;;;12.90;61.10;101269.22;12162925;19;20032;-90
2022/11/06 11:50:55;;;;;;;3.45;2.05;;;14.30;56.90;;;12.93;60.88;101253.31;12164621;19;20022;-87
2022/11/06 11:54:57;;;;;;;2.25;1.88;;;14.50;57.00;;;13.02;60.86;101250.19;12167821;19;20025;-89
2022/11/06 11:59:01;;;;;;;3.20;2.35;;;14.30;57.00;;;13.04;60.81;101244.84;12168551;19;20416;-89
2022/11/06 12:03:11;;;;;;;2.22;2.03;;;14.40;56.90;;;13.21;60.79;101252.59;12167792;19;20341;-90
2022/11/06 12:07:50;;;;;;;3.75;2.40;;;14.60;56.90;;;13.25;60.65;101243.59;12160775;19;20374;-90
2022/11/06 12:11:54;;;;;;;3.78;2.90;;;14.50;56.70;;;13.06;60.66;101187.94;12162708;19;20026;-89
2022/11/06 12:16:19;;;;;;;2.10;1.93;;;14.60;56.50;;;13.27;60.53;101214.72;12147624;19;20336;-91
2022/11/06 12:20:39;;;;;;;3.65;2.05;;;14.60;56.70;;;13.02;60.48;101152.34;12156015;19;20507;-90
2022/11/06 12:25:24;;;;;;;2.15;1.95;;;14.70;56.60;;;13.44;60.53;101214.53;12158461;19;20014;-91
2022/11/06 12:29:47;;;;;;;2.17;2.00;;;14.80;56.50;;;13.50;60.40;101197.59;12149550;19;20043;-90
2022/11/06 12:33:51;;;;;;;3.40;2.40;;;14.80;55.60;;;13.52;60.48;101190.47;12151558;19;20029;-90
2022/11/06 12:38:23;;;;;;;3.60;2.40;;;14.90;55.80;;;13.31;60.15;101139.31;12157625;19;20104;-91
2022/11/06 12:42:35;;;;;;;4.00;1.70;;;14.90;55.40;;;13.48;60.32;101154.88;12160000;19;20430;-90
2022/11/06 12:46:57;;;;;;;1.88;1.65;;;14.90;55.80;;;13.76;60.13;101192.56;12156396;19;20483;-90
2022/11/06 12:51:35;;;;;;;2.92;2.15;;;15.00;55.70;;;13.77;59.90;101183.75;12156772;19;20449;-90
2022/11/06 12:55:50;;;;;;;1.60;1.50;;;15.00;54.80;;;13.49;59.88;101143.44;12152001;19;20739;-90
2022/11/06 13:00:20;;;;;;;3.45;1.80;;;15.00;55.60;;;13.83;59.82;101193.88;12155832;19;20019;-89
2022/11/06 13:04:54;;;;;;;1.80;1.70;;;15.00;55.20;;;13.87;59.81;101195.38;12158660;19;20110;-90
2022/11/06 13:09:12;;;;;;;2.25;1.70;;;15.10;55.70;;;13.82;60.06;101173.81;12150133;19;20014;-89
2022/11/06 13:13:53;;;;;;;4.78;1.60;;;15.10;55.80;;;13.95;59.75;101180.81;12159218;19;20019;-89
2022/11/06 13:18:16;;;;;;;2.70;1.73;;;15.20;55.70;;;13.96;59.62;101179.06;12166662;19;20614;-91
2022/11/06 13:22:41;;;;;;;1.35;1.25;;;15.20;55.30;;;13.81;59.60;101151.13;12177004;19;20375;-87
2022/11/06 13:26:58;;;;;;;4.30;2.70;;;15.20;55.30;;;13.91;59.64;101154.88;12179346;19;20035;-91
2022/11/06 13:31:05;;;;;;;12.38;5.60;;;15.20;55.40;;;13.94;59.60;101141.56;12179831;19;20579;-89
2022/11/06 13:35:16;;;;;;;17.85;9.43;;;15.20;55.20;;;14.08;59.53;101165.16;12174298;19;20309;-89
2022/11/06 13:39:40;;;;;;;17.02;7.95;;;15.20;55.30;;;14.05;59.58;101148.75;12172358;19;20018;-89
2022/11/06 13:43:47;;;;;;;15.60;8.32;;;15.40;55.50;;;14.04;59.55;101129.53;12179236;19;20374;-89
2022/11/06 13:48:23;;;;;;;9.13;4.97;;;15.30;55.30;;;14.09;59.34;101134.47;12174067;19;20043;-89
2022/11/06 13:52:41;;;;;;;9.20;5.63;;;15.30;54.80;;;14.10;59.34;101131.78;12175715;19;20908;-88
2022/11/06 13:57:04;;;;;;;9.52;5.57;;;15.30;55.10;;;14.10;59.29;101126.53;12168837;19;20065;-89
2022/11/06 14:01:18;;;;;;;23.80;11.45;;;15.50;55.20;;;14.14;59.24;101122.75;12171523;19;20031;-87
2022/11/06 14:05:55;;;;;;;15.98;7.57;;;15.30;55.40;;;13.93;59.16;101103.09;12166437;19;20022;-89
2022/11/06 14:09:58;;;;;;;4.07;3.33;;;15.30;55.30;;;13.86;59.28;101070.31;12161125;19;20023;-90
2022/11/06 14:14:13;;;;;;;4.50;2.70;;;15.50;55.60;;;14.01;59.13;101106.06;12168204;19;20364;-89
2022/11/06 14:18:22;;;;;;;2.03;1.90;;;15.30;55.20;;;13.93;59.14;101089.97;12168851;19;20039;-89
2022/11/06 14:22:40;;;;;;;3.25;2.22;;;15.20;55.50;;;13.77;59.14;101065.63;12166265;19;20053;-89
2022/11/06 14:26:50;;;;;;;2.15;1.85;;;15.20;55.10;;;14.10;59.02;101123.88;12159248;19;20371;-88
2022/11/06 14:30:52;;;;;;;1.90;1.80;;;15.20;55.30;;;13.77;59.14;101063.88;12165072;19;20022;-89
2022/11/06 14:34:54;;;;;;;2.15;1.95;;;15.00;55.10;;;14.10;59.00;101116.00;12160977;19;20368;-88
2022/11/06 14:38:56;;;;;;;2.75;2.22;;;15.20;55.10;;;14.07;58.97;101116.22;12158427;19;20466;-88
2022/11/06 14:42:58;;;;;;;2.28;2.08;;;15.20;55.10;;;13.84;58.80;101067.78;12164367;19;20439;-88
2022/11/06 14:47:07;;;;;;;4.15;1.77;;;15.10;55.30;;;13.67;58.72;101050.47;12161595;19;20014;-90
2022/11/06 14:51:11;;;;;;;3.15;1.73;;;15.10;55.20;;;13.84;58.90;101082.69;12166777;19;20488;-90
2022/11/06 14:55:39;;;;;;;1.52;1.42;;;15.10;55.30;;;13.97;58.71;101098.50;12158006;19;20014;-89
2022/11/06 14:59:42;;;;;;;1.58;1.48;;;15.10;55.30;;;13.99;58.77;101091.34;12155597;19;20019;-89
2022/11/06 15:03:48;;;;;;;2.30;2.15;;;15.00;55.50;;;13.74;58.67;101053.53;12161548;19;20018;-89
2022/11/06 15:07:56;;;;;;;2.85;2.08;;;15.00;55.40;;;13.71;58.56;101051.94;12164963;19;20047;-90
2022/11/06 15:12:03;;;;;;;2.22;1.70;;;15.00;55.50;;;13.80;58.66;101071.53;12163891;19;20038;-87
2022/11/06 15:16:11;;;;;;;1.48;1.30;;;14.80;55.40;;;13.50;58.51;101038.41;12163839;19;20840;-89
2022/11/06 15:20:20;;;;;;;1.10;1.00;;;15.10;55.40;;;13.40;58.51;101029.44;12160318;19;20011;-89
2022/11/06 15:24:59;;;;;;;1.33;1.23;;;14.70;55.30;;;13.42;58.35;101050.31;12164200;19;20827;-88
2022/11/06 15:29:16;;;;;;;1.10;1.05;;;14.60;55.30;;;13.39;58.42;101061.00;12159430;19;20459;-90
2022/11/06 15:33:35;;;;;;;2.67;1.17;;;14.40;55.40;;;13.26;58.47;101063.53;12169596;19;20757;-89
2022/11/06 15:37:44;;;;;;;1.38;1.27;;;14.40;55.50;;;13.18;58.49;101071.84;12163592;19;20018;-89
2022/11/06 15:41:53;;;;;;;1.15;1.15;;;14.10;55.50;;;13.03;58.62;101055.22;12157028;19;20018;-88
2022/11/06 15:46:26;;;;;;;4.72;1.20;;;14.10;55.70;;;12.95;58.38;101067.13;12158741;19;20021;-89
2022/11/06 15:50:34;;;;;;;4.10;1.25;;;14.20;55.70;;;12.37;58.26;100977.94;12163206;19;20014;-89
2022/11/06 15:54:39;;;;;;;1.73;1.17;;;13.90;55.60;;;12.77;58.41;101056.81;12162699;19;21023;-87
2022/11/06 15:58:42;;;;;;;1.00;1.00;;;13.80;55.70;;;12.54;58.52;101041.59;12169384;19;20775;-88
2022/11/06 16:02:57;;;;;;;0.85;0.85;;;13.70;55.80;;;12.55;58.30;101057.19;12163014;19;20020;-88
2022/11/06 16:06:59;;;;;;;1.50;1.40;;;13.60;55.80;;;12.11;58.38;101003.00;12166873;19;20384;-88
2022/11/06 16:11:03;;;;;;;1.92;1.25;;;13.50;55.90;;;12.22;58.42;101035.59;12163933;19;20275;-89
2022/11/06 16:15:05;;;;;;;2.50;1.50;;;13.40;55.90;;;12.17;58.27;101034.06;12163376;19;20014;-88
2022/11/06 16:19:16;;;;;;;1.52;1.40;;;13.30;55.80;;;12.08;58.22;101045.06;12160484;19;20014;-88
2022/11/06 16:23:27;;;;;;;1.02;1.02;;;13.30;56.00;;;11.76;58.32;100998.88;12171342;19;20468;-87
2022/11/06 16:27:35;;;;;;;6.70;1.40;;;13.00;56.00;;;11.76;58.22;101014.59;12163123;19;20383;-88
2022/11/06 16:31:37;;;;;;;4.30;1.17;;;12.80;56.00;;;11.70;58.34;101002.69;12161775;19;20007;-87
2022/11/06 16:35:44;;;;;;;1.40;1.30;;;12.70;56.10;;;11.59;58.17;100991.97;12160647;19;20018;-87
2022/11/06 16:39:52;;;;;;;1.23;1.08;;;12.60;56.10;;;11.42;58.48;100990.28;12161033;19;20018;-86
2022/11/06 16:44:27;;;;;;;1.20;1.10;;;12.50;56.10;;;11.37;58.54;101003.63;12163329;19;20047;-87
2022/11/06 16:48:40;;;;;;;3.03;1.40;;;12.40;56.20;;;11.27;58.34;100997.19;12164429;19;20029;-87
2022/11/06 16:52:42;;;;;;;1.98;1.30;;;12.30;56.40;;;11.22;58.59;100988.75;12178568;19;20455;-87
2022/11/06 16:56:43;;;;;;;1.65;1.17;;;12.20;56.30;;;11.16;58.35;100989.09;12168894;19;20030;-87
2022/11/06 17:00:54;;;;;;;1.10;1.00;;;12.20;56.40;;;10.78;58.38;100939.69;12175709;19;20876;-88
2022/11/06 17:05:20;;;;;;;1.20;1.10;;;12.00;56.40;;;10.98;58.38;100988.28;12182309;19;20018;-88
2022/11/06 17:09:22;;;;;;;2.05;1.10;;;11.90;56.40;;;10.91;58.49;100990.38;12168963;19;20895;-88
2022/11/06 17:13:33;;;;;;;1.23;1.13;;;12.00;56.50;;;10.83;58.63;101006.44;12172227;19;20279;-88
2022/11/06 17:17:38;;;;;;;1.17;1.08;;;11.80;56.60;;;10.79;58.74;100993.63;12169240;19;20317;-89
2022/11/06 17:21:41;;;;;;;1.43;1.30;;;12.00;56.70;;;10.70;58.44;100988.88;12169169;19;20014;-88
2022/11/06 17:25:45;;;;;;;1.00;1.00;;;11.70;56.50;;;10.26;58.63;100939.72;12172594;19;20019;-87
2022/11/06 17:29:46;;;;;;;1.85;1.10;;;11.60;56.50;;;10.54;58.50;100999.25;12164394;19;20343;-87
2022/11/06 17:33:48;;;;;;;2.42;1.77;;;11.50;56.50;;;10.45;58.60;100992.75;12174620;19;20256;-88